• Join FlightAware (Why Join?)
  • Login
  • US Flag 
01:52PM EDT


 

Airport Tracker/Info


-or-


 

Live Flight TrackerFlight Track Log ✈ N125GH ✈ 11 de Oct de 2013 ✈ KHOU - TKPK / SKB

Flight Track Log - Related Links

Times and Time Zones

All times are in EDT time to prevent confusion due to time zone crossing. See the N125GH flight status page for this flight to view local times or setup timezone preferences in your user account.

Time Position Orientation Groundspeed Altitude Reporting Facility
EDT Latitude Longitude Course Direction KTS MPH feet Rate Location/Type
09:31AM 29.6372 -95.2864 169° South 165 190 500  Level Houston Center
09:32AM 29.5944 -95.2772 169° South 211 243 3,100 2,340 Climbing Houston Center
09:33AM 29.5644 -95.2506 142° Southeast 236 272 4,400 2,580 Climbing Houston Center
09:33AM 29.5394 -95.2286 143° Southeast 264 304 5,800 3,660 Climbing Houston Center
09:34AM 29.4958 -95.1881 141° Southeast 266 306 8,200 3,000 Climbing Houston Center
09:34AM 29.4797 -95.1736 142° Southeast 270 311 8,900 2,280 Climbing Houston Center
09:35AM 29.4494 -95.1189 122° Southeast 289 333 10,600 1,800 Climbing Houston Center
09:36AM 29.4722 -95.0133 76° East 351 404 12,200 1,800 Climbing Houston Center
09:37AM 29.5117 -94.9092 66° East 367 422 14,400 2,220 Climbing Houston Center
09:38AM 29.5547 -94.7950 67° East 390 449 16,800 2,040 Climbing Houston Center
09:39AM 29.6072 -94.6544 67° East 402 463 18,700 1,620 Climbing Houston Center
09:40AM 29.6522 -94.5286 68° East 421 484 20,200 1,440 Climbing Houston Center
09:41AM 29.6717 -94.3906 81° East 443 510 21,700 1,500 Climbing Houston Center
09:42AM 29.6775 -94.2478 87° East 447 514 23,300 1,500 Climbing Houston Center
09:43AM 29.6842 -94.0953 87° East 459 528 24,800 1,440 Climbing Houston Center
09:44AM 29.6858 -93.9464 89° East 467 537 26,300 1,380 Climbing Houston Center
09:45AM 29.6847 -93.7647 90° East 477 549 27,700 1,140 Climbing Houston Center
09:46AM 29.6817 -93.6061 91° East 494 568 28,700 1,020 Climbing Houston Center
09:47AM 29.6800 -93.4431 91° East 512 589 29,900 1,140 Climbing Houston Center
09:48AM 29.6778 -93.2781 91° East 519 597 31,100 1,140 Climbing Houston Center
09:49AM 29.6753 -93.1106 91° East 524 603 32,300 1,020 Climbing Houston Center
09:50AM 29.6731 -92.9400 91° East 532 612 33,300 1,020 Climbing Houston Center
09:51AM 29.6667 -92.7350 92° East 536 617 34,500 1,140 Climbing Houston Center
09:52AM 29.6267 -92.5717 106° East 529 609 35,700 1,020 Climbing Houston Center
09:53AM 29.5842 -92.4050 106° East 543 625 36,700 960 Climbing Houston Center
09:54AM 29.5408 -92.2386 107° East 544 626 37,700 960 Climbing Houston Center
09:55AM 29.4983 -92.0725 106° East 544 626 38,700 960 Climbing Houston Center
09:56AM 29.4472 -91.8767 107° East 537 618 39,700 780 Climbing Houston Center
09:57AM 29.4028 -91.7092 107° East 536 617 40,400 600 Climbing Houston Center
09:59AM 29.3611 -91.5475 106° East 532 612 41,000 240 Climbing Houston Center
10:00AM 29.3189 -91.3872 107° East 529 609 41,000  Level Houston Center
10:01AM 29.2761 -91.2275 107° East 528 608 41,000  Level Houston Center
10:02AM 29.2336 -91.0667 107° East 530 610 41,000  Level Houston Center
10:03AM 29.1906 -90.9058 107° East 531 611 41,000  Level Houston Center
10:04AM 29.1389 -90.7139 107° East 529 609 41,000  Level Houston Center
10:05AM 29.0956 -90.5539 107° East 530 610 41,000  Level Houston Center
10:06AM 29.0514 -90.3953 108° East 526 605 41,000  Level Houston Center
10:07AM 29.0081 -90.2350 107° East 529 609 41,000  Level Houston Center
10:08AM 28.9642 -90.0767 108° East 528 608 41,000  Level Houston Center
10:09AM 28.9114 -89.8872 108° East 526 605 41,000  Level Houston Center
10:10AM 28.8678 -89.7297 108° East 524 603 41,000  Level Houston Center
10:11AM 28.8231 -89.5686 108° East 529 609 41,000  Level Houston Center
10:12AM 28.7792 -89.4100 107° East 530 610 41,000  Level Houston Center
10:13AM 28.7342 -89.2525 108° East 526 605 41,000  Level Houston Center
10:14AM 28.6803 -89.0633 108° East 525 604 41,000  Level Houston Center
10:15AM 28.6353 -88.9069 108° East 522 601 41,000  Level Houston Center
10:16AM 28.5903 -88.7497 108° East 523 602 41,000  Level Houston Center
10:17AM 28.5464 -88.5928 108° East 524 603 41,000  Level Houston Center
10:18AM 28.5003 -88.4369 109° East 523 602 41,000  Level Houston Center
10:19AM 28.4556 -88.2806 108° East 522 601 41,000  Level Houston Center
10:20AM 28.3994 -88.0925 109° East 525 604 41,000  Level Houston Center
10:21AM 28.3494 -87.9581 113° Southeast 524 603 41,000  Level Houston Center
10:22AM 28.2664 -87.7814 118° Southeast 529 609 41,000  Level Houston Center
10:23AM 28.1969 -87.6342 118° Southeast 531 611 41,000  Level Houston Center
10:24AM 28.1281 -87.4881 118° Southeast 529 609 41,000  Level Houston Center
10:25AM 28.0606 -87.3417 118° Southeast 527 606 41,000  Level Houston Center
10:26AM 28.0136 -87.2458 119° Southeast 526 605 41,000  Level Jacksonville Center
10:27AM 27.9514 -87.1139 118° Southeast 526 605 41,000  Level Jacksonville Center
10:28AM 27.8850 -86.9728 118° Southeast 529 609 41,000  Level Jacksonville Center
10:29AM 27.8125 -86.8197 118° Southeast 537 618 41,000  Level Jacksonville Center
10:30AM 27.7397 -86.6739 119° Southeast 519 597 41,000  Level Jacksonville Center
10:31AM 27.6711 -86.5286 118° Southeast 530 610 41,000  Level Jacksonville Center
10:32AM 27.6019 -86.3808 118° Southeast 530 610 41,000  Level Jacksonville Center
10:33AM 27.5328 -86.2406 119° Southeast 524 603 41,000  Level Jacksonville Center
10:35AM 27.3825 -85.9308 119° Southeast 551 634 41,000  Level Miami Center
10:36AM 27.3122 -85.7875 119° Southeast 533 613 41,000  Level Miami Center
10:37AM 27.2417 -85.6469 119° Southeast 527 606 41,000  Level Miami Center
10:38AM 27.1733 -85.5042 118° Southeast 527 606 41,000  Level Miami Center
10:39AM 27.1025 -85.3617 119° Southeast 527 606 41,000  Level Miami Center
10:40AM 27.0381 -85.2194 117° Southeast 526 605 41,000  Level Miami Center
10:41AM 26.9689 -85.0797 119° Southeast 526 605 41,000  Level Miami Center
10:42AM 26.8956 -84.9372 120° Southeast 526 605 41,000  Level Miami Center
10:43AM 26.8200 -84.7950 121° Southeast 523 602 41,000  Level Miami Center
10:44AM 26.7525 -84.6558 118° Southeast 518 596 41,000  Level Miami Center
10:45AM 26.6889 -84.5214 118° Southeast 511 588 41,000  Level Miami Center
10:46AM 26.6300 -84.3714 114° Southeast 511 588 41,000  Level Miami Center
10:47AM 26.5811 -84.2269 111° Southeast 502 578 41,000  Level Miami Center
10:48AM 26.5297 -84.0844 112° Southeast 497 572 41,000  Level Miami Center
10:49AM 26.4783 -83.9400 112° Southeast 504 580 41,000  Level Miami Center
10:50AM 26.4231 -83.7931 113° Southeast 504 580 41,000  Level Miami Center
10:51AM 26.3733 -83.6511 111° Southeast 504 580 41,000  Level Miami Center
10:52AM 26.3236 -83.5094 111° Southeast 499 574 41,000  Level Miami Center
10:53AM 26.2697 -83.3628 112° Southeast 506 582 41,000  Level Miami Center
10:54AM 26.2175 -83.2189 112° Southeast 506 582 41,000  Level Miami Center
10:55AM 26.1653 -83.0775 112° Southeast 501 577 41,000  Level Miami Center
10:56AM 26.1128 -82.9358 112° Southeast 501 577 41,000  Level Miami Center
10:57AM 26.0603 -82.7878 112° Southeast 501 577 41,000  Level Miami Center
10:58AM 26.0075 -82.6489 113° Southeast 501 577 41,000  Level Miami Center
10:59AM 25.9547 -82.5053 112° Southeast 501 577 41,000  Level Miami Center
11:00AM 25.9039 -82.3622 112° Southeast 501 577 41,000  Level Miami Center
11:01AM 25.8506 -82.2192 112° Southeast 501 577 41,000  Level Miami Center
11:02AM 25.7992 -82.0808 112° Southeast 501 577 41,000  Level Miami Center
11:03AM 25.7458 -81.9378 112° Southeast 496 571 41,000  Level Miami Center
11:04AM 25.6942 -81.7997 113° Southeast 491 565 41,000  Level Miami Center
11:05AM 25.6406 -81.6569 113° Southeast 491 565 41,000  Level Miami Center
11:06AM 25.5883 -81.5214 113° Southeast 491 565 41,000  Level Miami Center
11:07AM 25.5344 -81.3811 113° Southeast 486 559 41,000  Level Miami Center
11:08AM 25.4803 -81.2389 113° Southeast 486 559 41,000  Level Miami Center
11:09AM 25.4300 -81.0989 112° Southeast 486 559 41,000  Level Miami Center
11:10AM 25.3733 -80.9592 114° Southeast 486 559 41,000  Level Miami Center
11:11AM 25.3186 -80.8194 113° Southeast 486 559 41,000  Level Miami Center
11:12AM 25.2658 -80.6822 113° Southeast 486 559 41,000  Level Miami Center
11:13AM 25.2050 -80.5311 114° Southeast 486 559 41,000  Level Miami Center
11:14AM 25.1519 -80.3917 113° Southeast 486 559 41,000  Level Miami Center
11:15AM 25.1008 -80.2528 112° Southeast 486 559 41,000  Level Miami Center
11:16AM 25.0475 -80.1158 113° Southeast 486 559 41,000  Level Miami Center
11:17AM 24.9922 -79.9769 114° Southeast 486 559 41,000  Level Miami Center
11:18AM 24.9386 -79.8403 113° Southeast 486 559 41,000  Level Miami Center
11:19AM 24.8847 -79.7039 114° Southeast 491 565 41,000  Level Miami Center
11:20AM 24.8289 -79.5697 115° Southeast 486 559 41,000  Level Miami Center
11:21AM 24.7728 -79.4336 114° Southeast 486 559 41,000  Level Miami Center
11:22AM 24.7164 -79.2975 114° Southeast 486 559 41,000  Level Miami Center
11:23AM 24.6639 -79.1844 117° Southeast 486 559 41,000  Level Miami Center
11:24AM 24.6075 -79.0508 115° Southeast 478 550 41,000  Level Miami Center
11:25AM 24.5531 -78.9197 115° Southeast 472 543 41,000  Level Miami Center
11:26AM 24.4961 -78.7861 115° Southeast 467 537 41,000  Level Miami Center
11:27AM 24.4372 -78.6553 116° Southeast 473 544 41,000  Level Miami Center
11:28AM 24.3822 -78.5267 115° Southeast 468 539 41,000  Level Miami Center
11:29AM 24.3231 -78.3914 116° Southeast 468 539 41,000  Level Miami Center
11:30AM 24.2681 -78.2631 115° Southeast 468 539 41,000  Level Miami Center
11:31AM 24.2106 -78.1325 116° Southeast 468 539 41,000  Level Miami Center
11:32AM 24.1553 -78.0044 115° Southeast 468 539 41,000  Level Miami Center
11:33AM 24.0978 -77.8719 115° Southeast 468 539 41,000  Level Miami Center
11:34AM 24.0422 -77.7417 115° Southeast 468 539 41,000 240 Level Miami Center
11:35AM 23.9842 -77.6139 116° Southeast 468 539 41,500 540 Climbing Miami Center
11:36AM 23.9283 -77.4864 116° Southeast 468 539 42,100 540 Climbing Miami Center
11:37AM 23.8706 -77.3542 116° Southeast 468 539 42,600 480 Climbing Miami Center
11:38AM 23.8144 -77.2269 116° Southeast 468 539 43,100 420 Climbing Miami Center
11:39AM 23.7581 -77.0994 116° Southeast 468 539 43,500 420 Climbing Miami Center
11:40AM 23.6997 -76.9747 117° Southeast 468 539 44,000 480 Climbing Miami Center
11:41AM 23.6475 -76.8522 115° Southeast 457 526 44,500 480 Climbing Miami Center
11:42AM 23.5911 -76.7319 117° Southeast 451 519 45,000 240 Climbing Miami Center
11:43AM 23.5472 -76.6344 116° Southeast 451 519 45,000  Level Miami Center
11:44AM 23.4819 -76.4897 116° Southeast 444 511 45,000  Level Miami Center
11:45AM 23.4253 -76.3697 117° Southeast 444 511 45,000  Level Miami Center
11:46AM 23.3706 -76.2456 116° Southeast 444 511 45,000  Level Miami Center
11:47AM 23.3136 -76.1236 117° Southeast 444 511 45,000  Level Miami Center
11:48AM 23.2586 -76.0042 117° Southeast 444 511 45,000  Level Miami Center
11:49AM 23.1950 -75.8689 117° Southeast 444 511 45,000  Level Miami Center
11:50AM 23.1419 -75.7450 115° Southeast 444 511 45,000  Level Miami Center
11:51AM 23.0867 -75.6258 117° Southeast 444 511 45,000  Level Miami Center
11:52AM 23.0333 -75.5044 116° Southeast 444 511 45,000  Level Miami Center
11:53AM 22.9800 -75.3853 116° Southeast 444 511 45,000  Level Miami Center
11:54AM 22.9244 -75.2664 117° Southeast 444 511 45,000  Level Miami Center
11:55AM 22.8708 -75.1478 116° Southeast 444 511 45,000  Level Miami Center
11:56AM 22.8153 -75.0311 117° Southeast 444 511 45,000  Level Miami Center
11:57AM 22.7614 -74.9103 116° Southeast 444 511 45,000  Level Miami Center
11:58AM 22.7056 -74.7919 117° Southeast 444 511 45,000  Level Miami Center
11:59AM 22.6494 -74.6736 117° Southeast 444 511 45,000  Level Miami Center
12:00PM 22.5936 -74.5553 117° Southeast 444 511 45,000  Level Miami Center
12:01PM 22.5394 -74.4347 116° Southeast 444 511 45,000  Level Miami Center
12:02PM 22.4853 -74.3167 116° Southeast 444 511 45,000  Level Miami Center
12:03PM 22.4311 -74.2008 117° Southeast 439 505 45,000  Level Miami Center
12:04PM 22.3725 -74.0808 118° Southeast 439 505 45,000  Level Miami Center
12:05PM 22.3158 -73.9608 117° Southeast 439 505 45,000  Level Miami Center
12:06PM 22.2594 -73.8431 117° Southeast 444 511 45,000  Level Miami Center
12:07PM 22.2156 -73.7478 116° Southeast 444 511 45,000  Level Miami Center
12:08PM 22.1397 -73.6083 120° Southeast 444 511 45,000  Level Miami Center
12:09PM 22.0806 -73.4889 118° Southeast 444 511 45,000  Level Miami Center
12:10PM 22.0525 -73.3553 103° East 450 518 45,000  Level Miami Center
12:11PM 22.0222 -73.2217 104° East 450 518 45,000  Level Miami Center
12:12PM 21.9856 -73.0883 106° East 456 525 45,000  Level Miami Center
12:13PM 21.9408 -72.9619 111° Southeast 451 519 45,000  Level Miami Center
12:14PM 21.8958 -72.8381 111° Southeast 451 519 45,000  Level Miami Center
12:15PM 21.8575 -72.7364 112° Southeast 451 519 45,000  Level Miami Center
12:16PM 21.7931 -72.5931 116° Southeast 451 519 45,000  Level Miami Center
12:17PM 21.7333 -72.4767 119° Southeast 446 513 45,000  Level Miami Center
12:18PM 21.6758 -72.3625 118° Southeast 440 506 45,000  Level Miami Center
12:19PM 21.6181 -72.2461 118° Southeast 434 499 45,000  Level Miami Center
12:20PM 21.5583 -72.1322 119° Southeast 434 499 45,000  Level Miami Center
12:21PM 21.4983 -72.0161 119° Southeast 434 499 45,000  Level Miami Center
12:22PM 21.4406 -71.9003 118° Southeast 429 494 45,000  Level Miami Center
12:23PM 21.3803 -71.7822 119° Southeast 435 501 45,000  Level Miami Center
12:24PM 21.3181 -71.6686 120° Southeast 435 501 45,000  Level Miami Center
12:25PM 21.2578 -71.5531 119° Southeast 435 501 45,000  Level Miami Center
12:26PM 21.1975 -71.4375 119° Southeast 435 501 45,000  Level Miami Center
12:27PM 21.1369 -71.3200 119° Southeast 435 501 45,000  Level Miami Center
12:28PM 21.0742 -71.2003 119° Southeast 440 506 45,000  Level Miami Center
12:29PM 21.0014 -71.0944 126° Southeast 450 518 45,000  Level Miami Center
12:30PM 20.9083 -71.0053 138° Southeast 450 518 45,000  Level Miami Center
12:31PM 20.8175 -70.9139 137° Southeast 445 512 45,000  Level Miami Center
12:32PM 20.7242 -70.8228 138° Southeast 450 518 45,000  Level Miami Center
12:33PM 20.6311 -70.7361 139° Southeast 450 518 45,000  Level Miami Center
12:34PM 20.5461 -70.6381 133° Southeast 450 518 45,000  Level Miami Center
12:35PM 20.4728 -70.5286 126° Southeast 450 518 45,000  Level Miami Center
12:36PM 20.4017 -70.4192 125° Southeast 450 518 45,000  Level Miami Center
12:37PM 20.3261 -70.3078 126° Southeast 450 518 45,000  Level Miami Center
12:38PM 20.2508 -70.2011 127° Southeast 460 529 45,000  Level Miami Center
12:39PM 20.1672 -70.0992 131° Southeast 460 529 45,000  Level Miami Center
12:40PM 20.0836 -69.9953 131° Southeast 460 529 45,000  Level Miami Center
12:41PM 19.9961 -69.8981 134° Southeast 460 529 45,000  Level Miami Center
12:42PM 19.9044 -69.8036 136° Southeast 460 529 45,000  Level Miami Center
12:43PM 19.8267 -69.6953 127° Southeast 460 529 45,000  Level Miami Center
12:44PM 19.7589 -69.5844 123° Southeast 460 529 45,000  Level Miami Center
12:45PM 19.6931 -69.4669 121° Southeast 460 529 45,000  Level Miami Center
12:46PM 19.6250 -69.3500 122° Southeast 460 529 45,000  Level Miami Center
12:47PM 19.5533 -69.2394 125° Southeast 460 529 45,000  Level Miami Center
12:48PM 19.5033 -69.1128 113° Southeast 460 529 45,000  Level Miami Center
12:49PM 19.4575 -68.9881 111° Southeast 460 529 45,000  Level Miami Center
12:50PM 19.4056 -68.8639 114° Southeast 460 529 45,000  Level Miami Center
12:51PM 19.3594 -68.7328 110° East 465 535 45,000  Level Miami Center
12:52PM 19.3333 -68.6667 113° Southeast 470 541 45,000  Level San Juan Center
12:53PM 19.2833 -68.5333 112° Southeast 470 541 45,000  Level San Juan Center
12:54PM 19.2333 -68.4000 112° Southeast 460 529 45,000  Level San Juan Center
12:55PM 19.2000 -68.2667 105° East 470 541 45,000  Level San Juan Center
12:56PM 19.1500 -68.1500 114° Southeast 470 541 45,000  Level San Juan Center
12:57PM 19.1000 -68.0167 112° Southeast 470 541 45,000  Level San Juan Center
12:58PM 19.0500 -67.8833 112° Southeast 470 541 45,000  Level San Juan Center
12:59PM 19.0167 -67.7667 107° East 460 529 45,000  Level San Juan Center
01:00PM 18.9667 -67.6333 112° Southeast 470 541 45,000  Level San Juan Center
01:01PM 18.9167 -67.5000 112° Southeast 470 541 45,000  Level San Juan Center
01:02PM 18.8833 -67.3833 107° East 460 529 45,000  Level San Juan Center
01:03PM 18.8333 -67.2500 112° Southeast 460 529 45,000  Level San Juan Center
01:04PM 18.7833 -67.1167 112° Southeast 460 529 45,000  Level San Juan Center
01:05PM 18.7500 -66.9667 103° East 470 541 45,000  Level San Juan Center
01:06PM 18.7500 -66.8333 90° East 460 529 45,000  Level San Juan Center
01:07PM 18.7500 -66.7000 90° East 460 529 45,000  Level San Juan Center
01:08PM 18.7500 -66.5667 90° East 460 529 45,000  Level San Juan Center
01:09PM 18.7500 -66.4333 90° East 470 541 45,000  Level San Juan Center
01:10PM 18.7500 -66.2833 90° East 470 541 45,000  Level San Juan Center
01:11PM 18.7167 -66.1667 107° East 470 541 45,000  Level San Juan Center
01:12PM 18.6667 -66.0333 112° Southeast 470 541 45,000  Level San Juan Center
01:13PM 18.6167 -65.9000 112° Southeast 470 541 45,000  Level San Juan Center
01:14PM 18.5667 -65.7833 114° Southeast 470 541 45,000  Level San Juan Center
01:15PM 18.5000 -65.6667 121° Southeast 460 529 45,000  Level San Juan Center
01:16PM 18.4333 -65.5333 118° Southeast 470 541 45,000  Level San Juan Center
01:17PM 18.3833 -65.4167 114° Southeast 460 529 45,000  Level San Juan Center
01:18PM 18.3167 -65.3167 125° Southeast 440 506 45,000  Level San Juan Center
01:19PM 18.2667 -65.1833 112° Southeast 470 541 45,000  Level San Juan Center
01:20PM 18.2000 -65.0667 121° Southeast 490 564 45,000  Level San Juan Center
01:21PM 18.1333 -64.9333 118° Southeast 470 541 45,000 -120 Level San Juan Center
01:22PM 18.0833 -64.8167 114° Southeast 460 529 44,800 -1,440 Descending San Juan Center
01:23PM 18.0167 -64.7000 121° Southeast 470 541 42,200 -2,640 Descending San Juan Center
01:24PM 17.9500 -64.5667 118° Southeast 470 541 39,500 -2,580 Descending San Juan Center
01:25PM 17.9000 -64.4500 114° Southeast 470 541 37,000 -2,700 Descending San Juan Center
01:26PM 17.8333 -64.3333 121° Southeast 470 541 34,200 -2,760 Descending San Juan Center
01:27PM 17.7667 -64.2000 118° Southeast 480 552 31,500 -2,760 Descending San Juan Center
01:28PM 17.7167 -64.0833 114° Southeast 470 541 28,700 -2,700 Descending San Juan Center
01:29PM 17.6500 -63.9667 121° Southeast 450 518 26,100 -2,460 Descending San Juan Center
01:30PM 17.6000 -63.8667 118° Southeast 440 506 23,800 -2,400 Descending San Juan Center
01:31PM 17.5333 -63.7500 121° Southeast 410 472 21,400 -2,400 Descending San Juan Center
01:32PM 17.4833 -63.6500 118° Southeast 400 460 19,100 -2,280 Descending San Juan Center
01:33PM 17.4667 -63.5333 99° East 380 437 16,900 -2,220 Descending San Juan Center
01:34PM 17.4333 -63.4333 109° East 370 426 14,700 -2,040 Descending San Juan Center
01:35PM 17.4167 -63.3333 100° East 340 391 12,900 -1,860 Descending San Juan Center
01:36PM 17.4000 -63.2500 102° East 300 345 11,000 -1,680 Descending San Juan Center
01:37PM 17.3833 -63.1500 100° East 290 334 9,600 -1,680 Descending San Juan Center
01:38PM 17.3667 -63.0833 105° East 260 299 7,700 -1,680 Descending San Juan Center
01:39PM 17.3500 -63.0167 105° East 230 265 6,300 -1,440 Descending San Juan Center
01:41PM 17.3197 -62.7838 90° East  Level Estimated
01:48PM 17.3112 -62.7187 90° East  Level Estimated
01:49PM 17.3112 -62.7187 90° East  Level Estimated
01:50PM 17.3112 -62.7187 90° East  Level Estimated
01:51PM 17.3112 -62.7187 90° East  Level Estimated
01:52PM 17.3112 -62.7187 90° East  Level Estimated
01:53PM 17.3112 -62.7187 90° East  Level Estimated
01:54PM 17.3112 -62.7187 90° East  Level Estimated
01:55PM 17.3112 -62.7187 90° East  Level Estimated
01:56PM 17.3112 -62.7187 90° East  Level Estimated
01:57PM 17.3112 -62.7187 90° East  Level Estimated
01:58PM 17.3112 -62.7187 90° East  Level Estimated
01:59PM 17.3112 -62.7187 90° East  Level Estimated
02:00PM 17.3112 -62.7187 90° East  Level Estimated